Saturday, May 26, 2018, 8:09 AM EDT
Back to Local

KDUJ, Du Bois-jefferson County

Location: Reynoldsville, PA, United States Lat: 41.183
Local Time: 8:09 AM EDT (12:09 GMT) Lon: -78.883
Time Zone: US/Eastern Elev: 1820 ft

Show me the last for .
Show Decoded

2018-05-26 07:53 METAR KDUJ 261153Z AUTO 22005KT 6SM BR CLR 19/18 A2990 RMK AO2 SLP112 T01890178
                 10189 20139 53006 =
2018-05-26 06:53 METAR KDUJ 261053Z AUTO 00000KT 5SM BR CLR 16/14 A2990 RMK AO2 SLP112 T01560144
                 =
2018-05-26 05:53 METAR KDUJ 260953Z AUTO 00000KT 7SM CLR 14/13 A2988 RMK AO2 SLP107 T01440133 =
2018-05-26 04:53 METAR KDUJ 260853Z AUTO 21003KT 10SM FEW065 17/13 A2988 RMK AO2 SLP105 T01670128
                 55004 =
2018-05-26 03:53 METAR KDUJ 260753Z AUTO 00000KT 10SM OVC060 17/14 A2988 RMK AO2 SLP103 T01670144
                 =
2018-05-26 02:53 METAR KDUJ 260653Z AUTO 00000KT 9SM CLR 17/15 A2988 RMK AO2 SLP106 T01670150 =
2018-05-26 01:53 METAR KDUJ 260553Z AUTO 00000KT 10SM CLR 17/13 A2989 RMK AO2 SLP110 T01670133
                 10239 20167 58006 =
2018-05-26 00:53 METAR KDUJ 260453Z AUTO 21003KT 10SM CLR 18/13 A2990 RMK AO2 SLP113 T01830133
                 402720111 =
2018-05-25 23:53 METAR KDUJ 260353Z AUTO 22003KT 10SM CLR 19/14 A2991 RMK AO2 SLP114 T01940139 =
2018-05-25 22:53 METAR KDUJ 260253Z AUTO 21003KT 10SM CLR 19/14 A2991 RMK AO2 SLP116 T01940139
                 53002 =
2018-05-25 21:53 METAR KDUJ 260153Z AUTO 21003KT 10SM CLR 20/14 A2991 RMK AO2 SLP116 T02000144 =
2018-05-25 20:53 METAR KDUJ 260053Z AUTO 21003KT 10SM CLR 21/15 A2990 RMK AO2 SLP115 T02110150 =
2018-05-25 19:53 METAR KDUJ 252353Z AUTO 22003KT 10SM CLR 23/14 A2990 RMK AO2 SLP115 T02280144
                 10272 20228 56012 =
2018-05-25 18:53 METAR KDUJ 252253Z AUTO 25008KT 10SM CLR 26/14 A2991 RMK AO2 SLP117 T02560139 =
2018-05-25 17:53 METAR KDUJ 252153Z AUTO 23009KT 10SM CLR 27/13 A2993 RMK AO2 SLP123 T02670133 =
2018-05-25 16:53 METAR KDUJ 252053Z AUTO 24012KT 10SM CLR 27/12 A2994 RMK AO2 SLP128 T02720122
                 57018 =
2018-05-25 15:53 METAR KDUJ 251953Z AUTO 24009KT 10SM CLR 27/13 A2996 RMK AO2 SLP135 T02720128 =
2018-05-25 14:53 METAR KDUJ 251853Z AUTO 27009KT 10SM CLR 27/12 A2997 RMK AO2 SLP140 T02670117 =
2018-05-25 13:53 METAR KDUJ 251753Z AUTO 25011G18KT 10SM CLR 26/12 A2999 RMK AO2 SLP146 T02610117
                 10267 20167 58016 =
2018-05-25 12:53 METAR KDUJ 251653Z AUTO 24009G16KT 10SM CLR 26/12 A3001 RMK AO2 SLP149 T02560122
                 =
2018-05-25 11:53 METAR KDUJ 251553Z AUTO 23009KT 10SM CLR 24/12 A3004 RMK AO2 SLP160 T02440117 =
2018-05-25 10:53 METAR KDUJ 251453Z AUTO 25004KT 10SM CLR 23/13 A3004 RMK AO2 SLP163 T02280133
                 58011 =
2018-05-25 09:53 METAR KDUJ 251353Z AUTO 23004KT 10SM CLR 21/12 A3006 RMK AO2 SLP169 T02110117 =
2018-05-25 08:53 METAR KDUJ 251253Z AUTO 22005KT 10SM CLR 19/12 A3007 RMK AO2 SLP175 T01890117 =

Support USWX by starting your Amazon purchase here.